Hurghada, Egypti

27. marraskuuta 2014 klo 16:02 (EET) (GMT +0200)
Hurghada International | Change Station
CLOSE
Current Station
Airport
Location: Hurghada,
Korkeus: 46 ft
Lähimmät sääasemat

Kork 46 ft 27.18 °N, 33.80 °E | Updated 1 hour ago

Clear
Selkeää
73 °F
Tuntuu kuin 73 °F
N
17
Tuuli Suunnaltaan vaihteleva Tuuli ilmansuunnasta Pohjoinen

Tänään
Korkea -- | Matala -- °F
--% Sateen mahd.
Eilen
Korkea -- | Matala -- °F
Precip. -- tuumaa
6:14 AM 4:51 PM
Kasvava sirppi, 29% visible
Ilmanpaine 30.04 tuumaa
Näkyvyys -9999.0 mailia
Pilviä
Kastepiste 54 °F
Ilmankosteus 50%
Sademäärä 0.00 tuumaa
Lumensyvyys Ei saatavilla
UV Ei saatavilla
Pollen Ei saatavilla
Ilmanlaatu Ei saatavilla
Flu Activity Ei saatavilla
METAR HEGN 271300Z 36015KT CAVOK 23/12 Q1017 NOSIG

More Conditions Fewer Conditions

Ilmanpaine 30.04 tuumaa
Näkyvyys -9999.0 mailia
Pilviä
Kastepiste 54 °F
Ilmankosteus 50%
Sademäärä 0.00 tuumaa
Lumensyvyys Ei saatavilla
UV Ei saatavilla
Pollen Ei saatavilla
Ilmanlaatu Ei saatavilla
Flu Activity Ei saatavilla
METAR HEGN 271300Z 36015KT CAVOK 23/12 Q1017 NOSIG

More Conditions Fewer Conditions

10-Day Weather Forecast

Almanac

Tähtitiede

Nov. 27, 2014 Nousuaika Laskuaika
Valoisa aika
Porvarillinen hämärä
Nauttinen hämärä
Astronominen hämärä
Kuu
Näkyvän valon pituus
Päivän pituus
Tomorrow will be .
, % of the Moon is Illuminated

Tämän päivän ennätykset

Country Highs Country Lows

Community

WunderPhotos

Upload Photos

1,774,003 photos uploaded!

WunderBlogs® & News

Nearby

Ilmanlaatu

  Ilmanlaatu AQ Index Pollutant
Not available.

Lumensyvyys

Station Depth Korkeus

Maanjäristysaktiivisuus

Paikkakunta Distance Mag. Time & Date
Minimum magnitude displayed is 2.5.

Coastal Water Temperatures

Paikka Lämpötila

Lähimmät sääasemat